All Spectrum Aviation - Van Nuys Airport - KVNY

HOME

Condor Squadron KVNY Webcam

Visit our Electronics Store

Condor Squadron Webcam - Van Nuys Airport - KVNY
Picture taken: Sun, 09 May 2021 21:38:41 -0700
YouTube Channel!    Latest Timelapse Movie    Full Size Image    Regular Size Image    

2021/05/10 03:51 KVNY 100351Z 14007KT 10SM CLR 17/12 A2986 RMK AO2 SLP107 T01720117

HOME

Condor Squadron KVNY Webcam

Visit our Electronics Store